Terminal Aerodrome Forecast
Issued by NWS

Home | Current Version | Previous Version | Text Only | Print | Product List | Glossary On
Versions: 1 2 3 4 5 6 7 8 9 10 11 12 13 14 15 16 17 18 19 20 21 22 23 24
000
FTUS46 KSGX 061545 AAA
TAFSAN
TAF AMD
KSAN 061545Z 0616/0718 VRB05KT P6SM -SHRA SCT015 BKN040 OVC060
     FM061700 21010KT P6SM -SHRA SCT018 BKN035
     FM062000 24010G18KT P6SM -SHRA SCT015 BKN050
     FM070200 27006KT P6SM VCSH SCT015 BKN035
     FM070800 VRB05KT P6SM BKN025 BKN040=

USA.gov is the U.S. government's official web portal to all federal, state and local government web resources and services.